sensor_id;sensor_type;location;lat;lon;timestamp;P1;durP1;ratioP1;P2;durP2;ratioP2
65172;SDS011;51758;52.218;5.172;2023-03-19T00:00:50;3.67;;;2.57;;
65172;SDS011;51758;52.218;5.172;2023-03-19T00:03:18;4.07;;;2.53;;
65172;SDS011;51758;52.218;5.172;2023-03-19T00:05:49;4.80;;;2.88;;
65172;SDS011;51758;52.218;5.172;2023-03-19T00:08:17;3.53;;;2.60;;
65172;SDS011;51758;52.218;5.172;2023-03-19T00:10:45;3.80;;;2.60;;
65172;SDS011;51758;52.218;5.172;2023-03-19T00:13:13;4.45;;;2.97;;
65172;SDS011;51758;52.218;5.172;2023-03-19T00:15:42;4.80;;;2.73;;
65172;SDS011;51758;52.218;5.172;2023-03-19T00:18:10;3.87;;;2.70;;
65172;SDS011;51758;52.218;5.172;2023-03-19T00:20:38;5.20;;;3.10;;
65172;SDS011;51758;52.218;5.172;2023-03-19T00:23:06;6.05;;;3.10;;
65172;SDS011;51758;52.218;5.172;2023-03-19T00:25:34;3.85;;;2.80;;
65172;SDS011;51758;52.218;5.172;2023-03-19T00:28:02;4.75;;;2.95;;
65172;SDS011;51758;52.218;5.172;2023-03-19T00:30:30;4.00;;;3.23;;
65172;SDS011;51758;52.218;5.172;2023-03-19T00:32:59;4.70;;;3.17;;
65172;SDS011;51758;52.218;5.172;2023-03-19T00:35:27;5.67;;;3.90;;
65172;SDS011;51758;52.218;5.172;2023-03-19T00:37:55;6.53;;;3.93;;
65172;SDS011;51758;52.218;5.172;2023-03-19T00:40:22;5.60;;;3.90;;
65172;SDS011;51758;52.218;5.172;2023-03-19T00:42:50;8.60;;;4.43;;
65172;SDS011;51758;52.218;5.172;2023-03-19T00:45:18;5.67;;;4.27;;
65172;SDS011;51758;52.218;5.172;2023-03-19T00:47:46;5.88;;;4.13;;
65172;SDS011;51758;52.218;5.172;2023-03-19T00:50:15;7.07;;;4.60;;
65172;SDS011;51758;52.218;5.172;2023-03-19T00:52:42;5.87;;;4.27;;
65172;SDS011;51758;52.218;5.172;2023-03-19T00:55:10;5.67;;;4.40;;
65172;SDS011;51758;52.218;5.172;2023-03-19T00:57:38;9.07;;;5.60;;
65172;SDS011;51758;52.218;5.172;2023-03-19T01:00:06;8.02;;;5.25;;
65172;SDS011;51758;52.218;5.172;2023-03-19T01:02:36;11.00;;;5.60;;
65172;SDS011;51758;52.218;5.172;2023-03-19T01:05:03;8.37;;;5.57;;
65172;SDS011;51758;52.218;5.172;2023-03-19T01:07:34;6.33;;;4.90;;
65172;SDS011;51758;52.218;5.172;2023-03-19T01:10:02;11.13;;;6.20;;
65172;SDS011;51758;52.218;5.172;2023-03-19T01:12:31;8.55;;;5.38;;
65172;SDS011;51758;52.218;5.172;2023-03-19T01:14:59;8.93;;;5.53;;
65172;SDS011;51758;52.218;5.172;2023-03-19T01:17:27;9.07;;;6.10;;
65172;SDS011;51758;52.218;5.172;2023-03-19T01:19:54;9.00;;;5.90;;
65172;SDS011;51758;52.218;5.172;2023-03-19T01:22:22;7.82;;;5.75;;
65172;SDS011;51758;52.218;5.172;2023-03-19T01:24:51;8.63;;;5.30;;
65172;SDS011;51758;52.218;5.172;2023-03-19T01:27:19;8.93;;;5.10;;
65172;SDS011;51758;52.218;5.172;2023-03-19T01:29:47;10.40;;;5.53;;
65172;SDS011;51758;52.218;5.172;2023-03-19T01:32:14;6.73;;;5.33;;
65172;SDS011;51758;52.218;5.172;2023-03-19T01:34:42;7.80;;;5.40;;
65172;SDS011;51758;52.218;5.172;2023-03-19T01:37:10;9.67;;;5.93;;
65172;SDS011;51758;52.218;5.172;2023-03-19T01:39:38;9.17;;;5.83;;
65172;SDS011;51758;52.218;5.172;2023-03-19T01:42:07;8.07;;;5.70;;
65172;SDS011;51758;52.218;5.172;2023-03-19T01:44:35;7.33;;;5.77;;
65172;SDS011;51758;52.218;5.172;2023-03-19T01:47:05;8.60;;;6.50;;
65172;SDS011;51758;52.218;5.172;2023-03-19T01:49:40;7.97;;;6.23;;
65172;SDS011;51758;52.218;5.172;2023-03-19T01:52:11;8.23;;;5.67;;
65172;SDS011;51758;52.218;5.172;2023-03-19T01:54:40;8.77;;;6.00;;
65172;SDS011;51758;52.218;5.172;2023-03-19T01:57:10;11.20;;;7.38;;
65172;SDS011;51758;52.218;5.172;2023-03-19T01:59:40;10.20;;;6.57;;
65172;SDS011;51758;52.218;5.172;2023-03-19T02:02:12;8.73;;;7.00;;
65172;SDS011;51758;52.218;5.172;2023-03-19T02:04:45;9.03;;;6.83;;
65172;SDS011;51758;52.218;5.172;2023-03-19T02:07:17;8.20;;;6.87;;
65172;SDS011;51758;52.218;5.172;2023-03-19T02:09:45;9.13;;;7.60;;
65172;SDS011;51758;52.218;5.172;2023-03-19T02:12:14;11.07;;;7.82;;
65172;SDS011;51758;52.218;5.172;2023-03-19T02:14:44;8.87;;;7.20;;
65172;SDS011;51758;52.218;5.172;2023-03-19T02:17:12;12.15;;;8.38;;
65172;SDS011;51758;52.218;5.172;2023-03-19T02:19:42;12.05;;;8.55;;
65172;SDS011;51758;52.218;5.172;2023-03-19T02:22:15;10.83;;;8.80;;
65172;SDS011;51758;52.218;5.172;2023-03-19T02:24:48;11.17;;;8.87;;
65172;SDS011;51758;52.218;5.172;2023-03-19T02:27:21;13.67;;;9.83;;
65172;SDS011;51758;52.218;5.172;2023-03-19T02:29:49;12.47;;;10.40;;
65172;SDS011;51758;52.218;5.172;2023-03-19T02:32:17;15.77;;;10.75;;
65172;SDS011;51758;52.218;5.172;2023-03-19T02:34:45;12.77;;;10.70;;
65172;SDS011;51758;52.218;5.172;2023-03-19T02:37:15;15.07;;;10.77;;
65172;SDS011;51758;52.218;5.172;2023-03-19T02:39:48;14.83;;;11.00;;
65172;SDS011;51758;52.218;5.172;2023-03-19T02:42:22;15.70;;;11.63;;
65172;SDS011;51758;52.218;5.172;2023-03-19T02:44:53;14.50;;;10.53;;
65172;SDS011;51758;52.218;5.172;2023-03-19T02:47:22;16.63;;;10.90;;
65172;SDS011;51758;52.218;5.172;2023-03-19T02:49:49;14.35;;;10.63;;
65172;SDS011;51758;52.218;5.172;2023-03-19T02:52:17;16.67;;;11.30;;
65172;SDS011;51758;52.218;5.172;2023-03-19T02:54:45;14.88;;;12.02;;
65172;SDS011;51758;52.218;5.172;2023-03-19T02:57:13;19.27;;;12.57;;
65172;SDS011;51758;52.218;5.172;2023-03-19T02:59:43;15.48;;;11.07;;
65172;SDS011;51758;52.218;5.172;2023-03-19T03:02:10;17.50;;;12.50;;
65172;SDS011;51758;52.218;5.172;2023-03-19T03:04:38;16.65;;;11.40;;
65172;SDS011;51758;52.218;5.172;2023-03-19T03:07:07;17.20;;;12.20;;
65172;SDS011;51758;52.218;5.172;2023-03-19T03:09:35;15.15;;;10.93;;
65172;SDS011;51758;52.218;5.172;2023-03-19T03:12:03;15.20;;;11.00;;
65172;SDS011;51758;52.218;5.172;2023-03-19T03:14:31;16.50;;;12.30;;
65172;SDS011;51758;52.218;5.172;2023-03-19T03:17:00;15.13;;;11.93;;
65172;SDS011;51758;52.218;5.172;2023-03-19T03:19:28;17.90;;;12.70;;
65172;SDS011;51758;52.218;5.172;2023-03-19T03:21:56;16.25;;;12.07;;
65172;SDS011;51758;52.218;5.172;2023-03-19T03:24:24;16.55;;;12.10;;
65172;SDS011;51758;52.218;5.172;2023-03-19T03:26:51;18.73;;;13.33;;
65172;SDS011;51758;52.218;5.172;2023-03-19T03:29:19;20.80;;;13.97;;
65172;SDS011;51758;52.218;5.172;2023-03-19T03:31:47;18.10;;;13.53;;
65172;SDS011;51758;52.218;5.172;2023-03-19T03:34:16;17.17;;;12.87;;
65172;SDS011;51758;52.218;5.172;2023-03-19T03:36:44;17.23;;;13.37;;
65172;SDS011;51758;52.218;5.172;2023-03-19T03:39:12;17.15;;;13.10;;
65172;SDS011;51758;52.218;5.172;2023-03-19T03:41:40;17.80;;;12.80;;
65172;SDS011;51758;52.218;5.172;2023-03-19T03:44:07;21.47;;;13.50;;
65172;SDS011;51758;52.218;5.172;2023-03-19T03:46:35;16.43;;;11.93;;
65172;SDS011;51758;52.218;5.172;2023-03-19T03:49:03;20.13;;;13.77;;
65172;SDS011;51758;52.218;5.172;2023-03-19T03:51:32;17.03;;;11.73;;
65172;SDS011;51758;52.218;5.172;2023-03-19T03:54:00;20.23;;;13.30;;
65172;SDS011;51758;52.218;5.172;2023-03-19T03:56:27;17.50;;;12.90;;
65172;SDS011;51758;52.218;5.172;2023-03-19T03:58:56;19.20;;;12.90;;
65172;SDS011;51758;52.218;5.172;2023-03-19T04:01:24;19.60;;;14.03;;
65172;SDS011;51758;52.218;5.172;2023-03-19T04:03:51;20.17;;;13.80;;
65172;SDS011;51758;52.218;5.172;2023-03-19T04:06:20;19.93;;;13.30;;
65172;SDS011;51758;52.218;5.172;2023-03-19T04:08:50;15.77;;;11.30;;
65172;SDS011;51758;52.218;5.172;2023-03-19T04:11:18;20.73;;;14.37;;
65172;SDS011;51758;52.218;5.172;2023-03-19T04:13:46;18.83;;;14.02;;
65172;SDS011;51758;52.218;5.172;2023-03-19T04:16:14;19.40;;;14.50;;
65172;SDS011;51758;52.218;5.172;2023-03-19T04:18:42;19.43;;;14.73;;
65172;SDS011;51758;52.218;5.172;2023-03-19T04:21:09;18.50;;;14.10;;
65172;SDS011;51758;52.218;5.172;2023-03-19T04:23:37;16.40;;;12.80;;
65172;SDS011;51758;52.218;5.172;2023-03-19T04:26:06;14.73;;;12.07;;
65172;SDS011;51758;52.218;5.172;2023-03-19T04:28:34;18.63;;;13.70;;
65172;SDS011;51758;52.218;5.172;2023-03-19T04:31:03;17.85;;;13.40;;
65172;SDS011;51758;52.218;5.172;2023-03-19T04:33:32;18.47;;;13.50;;
65172;SDS011;51758;52.218;5.172;2023-03-19T04:36:01;18.98;;;12.70;;
65172;SDS011;51758;52.218;5.172;2023-03-19T04:38:29;23.42;;;15.52;;
65172;SDS011;51758;52.218;5.172;2023-03-19T04:40:57;19.07;;;13.73;;
65172;SDS011;51758;52.218;5.172;2023-03-19T04:43:26;19.85;;;13.95;;
65172;SDS011;51758;52.218;5.172;2023-03-19T04:45:54;20.30;;;14.30;;
65172;SDS011;51758;52.218;5.172;2023-03-19T04:48:22;21.90;;;14.93;;
65172;SDS011;51758;52.218;5.172;2023-03-19T04:50:49;19.43;;;14.47;;
65172;SDS011;51758;52.218;5.172;2023-03-19T04:53:18;22.13;;;15.35;;
65172;SDS011;51758;52.218;5.172;2023-03-19T04:55:46;25.27;;;16.27;;
65172;SDS011;51758;52.218;5.172;2023-03-19T04:58:14;25.33;;;16.60;;
65172;SDS011;51758;52.218;5.172;2023-03-19T05:00:43;27.70;;;16.52;;
65172;SDS011;51758;52.218;5.172;2023-03-19T05:03:12;26.40;;;16.43;;
65172;SDS011;51758;52.218;5.172;2023-03-19T05:05:40;20.13;;;15.00;;
65172;SDS011;51758;52.218;5.172;2023-03-19T05:08:08;35.13;;;20.35;;
65172;SDS011;51758;52.218;5.172;2023-03-19T05:10:36;40.70;;;23.47;;
65172;SDS011;51758;52.218;5.172;2023-03-19T05:13:04;30.27;;;16.40;;
65172;SDS011;51758;52.218;5.172;2023-03-19T05:15:33;26.93;;;17.27;;
65172;SDS011;51758;52.218;5.172;2023-03-19T05:18:02;23.23;;;15.73;;
65172;SDS011;51758;52.218;5.172;2023-03-19T05:20:30;29.97;;;17.83;;
65172;SDS011;51758;52.218;5.172;2023-03-19T05:22:58;27.40;;;17.70;;
65172;SDS011;51758;52.218;5.172;2023-03-19T05:25:26;25.57;;;16.87;;
65172;SDS011;51758;52.218;5.172;2023-03-19T05:30:22;29.53;;;17.90;;
65172;SDS011;51758;52.218;5.172;2023-03-19T05:32:50;28.60;;;18.27;;
65172;SDS011;51758;52.218;5.172;2023-03-19T05:35:19;29.07;;;20.33;;
65172;SDS011;51758;52.218;5.172;2023-03-19T05:37:48;32.33;;;22.37;;
65172;SDS011;51758;52.218;5.172;2023-03-19T05:40:15;31.57;;;20.70;;
65172;SDS011;51758;52.218;5.172;2023-03-19T05:42:43;35.20;;;23.20;;
65172;SDS011;51758;52.218;5.172;2023-03-19T05:45:11;36.53;;;23.43;;
65172;SDS011;51758;52.218;5.172;2023-03-19T05:47:39;34.33;;;22.93;;
65172;SDS011;51758;52.218;5.172;2023-03-19T05:50:07;38.50;;;24.80;;
65172;SDS011;51758;52.218;5.172;2023-03-19T05:55:04;39.37;;;24.60;;
65172;SDS011;51758;52.218;5.172;2023-03-19T05:57:33;39.27;;;25.30;;
65172;SDS011;51758;52.218;5.172;2023-03-19T06:00:01;37.80;;;24.25;;
65172;SDS011;51758;52.218;5.172;2023-03-19T06:02:31;38.07;;;24.67;;
65172;SDS011;51758;52.218;5.172;2023-03-19T06:05:00;35.25;;;24.25;;
65172;SDS011;51758;52.218;5.172;2023-03-19T06:07:27;37.20;;;25.50;;
65172;SDS011;51758;52.218;5.172;2023-03-19T06:09:56;37.97;;;26.47;;
65172;SDS011;51758;52.218;5.172;2023-03-19T06:12:24;39.33;;;25.13;;
65172;SDS011;51758;52.218;5.172;2023-03-19T06:14:52;36.77;;;24.77;;
65172;SDS011;51758;52.218;5.172;2023-03-19T06:17:19;41.73;;;25.90;;
65172;SDS011;51758;52.218;5.172;2023-03-19T06:19:47;40.67;;;26.27;;
65172;SDS011;51758;52.218;5.172;2023-03-19T06:22:15;40.35;;;26.30;;
65172;SDS011;51758;52.218;5.172;2023-03-19T06:24:43;40.47;;;27.17;;
65172;SDS011;51758;52.218;5.172;2023-03-19T06:27:12;38.15;;;25.55;;
65172;SDS011;51758;52.218;5.172;2023-03-19T06:29:40;43.03;;;25.60;;
65172;SDS011;51758;52.218;5.172;2023-03-19T06:32:08;40.08;;;25.20;;
65172;SDS011;51758;52.218;5.172;2023-03-19T06:34:36;45.80;;;25.20;;
65172;SDS011;51758;52.218;5.172;2023-03-19T06:37:04;37.87;;;25.00;;
65172;SDS011;51758;52.218;5.172;2023-03-19T06:39:32;38.00;;;25.85;;
65172;SDS011;51758;52.218;5.172;2023-03-19T06:42:00;38.63;;;25.90;;
65172;SDS011;51758;52.218;5.172;2023-03-19T06:44:29;37.33;;;24.70;;
65172;SDS011;51758;52.218;5.172;2023-03-19T06:46:57;41.73;;;26.43;;
65172;SDS011;51758;52.218;5.172;2023-03-19T06:49:24;41.47;;;26.43;;
65172;SDS011;51758;52.218;5.172;2023-03-19T06:51:52;40.53;;;25.05;;
65172;SDS011;51758;52.218;5.172;2023-03-19T06:54:20;40.78;;;25.30;;
65172;SDS011;51758;52.218;5.172;2023-03-19T06:56:48;43.05;;;26.33;;
65172;SDS011;51758;52.218;5.172;2023-03-19T06:59:16;43.50;;;26.17;;
65172;SDS011;51758;52.218;5.172;2023-03-19T07:01:45;44.83;;;26.47;;
65172;SDS011;51758;52.218;5.172;2023-03-19T07:04:13;45.23;;;27.20;;
65172;SDS011;51758;52.218;5.172;2023-03-19T07:06:41;52.42;;;28.58;;
65172;SDS011;51758;52.218;5.172;2023-03-19T07:09:09;48.60;;;27.90;;
65172;SDS011;51758;52.218;5.172;2023-03-19T07:11:36;51.90;;;28.80;;
65172;SDS011;51758;52.218;5.172;2023-03-19T07:14:04;46.60;;;27.77;;
65172;SDS011;51758;52.218;5.172;2023-03-19T07:16:32;50.47;;;30.20;;
65172;SDS011;51758;52.218;5.172;2023-03-19T07:19:01;51.90;;;29.10;;
65172;SDS011;51758;52.218;5.172;2023-03-19T07:21:29;49.80;;;27.20;;
65172;SDS011;51758;52.218;5.172;2023-03-19T07:23:56;53.10;;;27.87;;
65172;SDS011;51758;52.218;5.172;2023-03-19T07:26:24;52.60;;;27.80;;
65172;SDS011;51758;52.218;5.172;2023-03-19T07:28:52;50.75;;;28.55;;
65172;SDS011;51758;52.218;5.172;2023-03-19T07:31:20;48.20;;;26.57;;
65172;SDS011;51758;52.218;5.172;2023-03-19T07:33:48;52.28;;;28.10;;
65172;SDS011;51758;52.218;5.172;2023-03-19T07:36:17;51.10;;;28.67;;
65172;SDS011;51758;52.218;5.172;2023-03-19T07:38:46;46.57;;;25.73;;
65172;SDS011;51758;52.218;5.172;2023-03-19T07:41:14;60.73;;;29.93;;
65172;SDS011;51758;52.218;5.172;2023-03-19T07:43:41;55.87;;;29.20;;
65172;SDS011;51758;52.218;5.172;2023-03-19T07:46:09;49.77;;;28.43;;
65172;SDS011;51758;52.218;5.172;2023-03-19T07:48:37;44.17;;;25.30;;
65172;SDS011;51758;52.218;5.172;2023-03-19T07:51:05;49.67;;;27.00;;
65172;SDS011;51758;52.218;5.172;2023-03-19T07:53:34;45.77;;;27.57;;
65172;SDS011;51758;52.218;5.172;2023-03-19T07:56:02;45.13;;;25.87;;
65172;SDS011;51758;52.218;5.172;2023-03-19T07:58:30;41.75;;;23.55;;
65172;SDS011;51758;52.218;5.172;2023-03-19T08:00:57;44.23;;;24.97;;
65172;SDS011;51758;52.218;5.172;2023-03-19T08:03:25;47.97;;;27.10;;
65172;SDS011;51758;52.218;5.172;2023-03-19T08:05:53;38.77;;;23.53;;
65172;SDS011;51758;52.218;5.172;2023-03-19T08:08:21;38.67;;;23.63;;
65172;SDS011;51758;52.218;5.172;2023-03-19T08:10:51;37.33;;;22.60;;
65172;SDS011;51758;52.218;5.172;2023-03-19T08:13:20;35.60;;;21.93;;
65172;SDS011;51758;52.218;5.172;2023-03-19T08:15:47;35.43;;;22.53;;
65172;SDS011;51758;52.218;5.172;2023-03-19T08:18:15;37.17;;;21.85;;
65172;SDS011;51758;52.218;5.172;2023-03-19T08:20:43;41.33;;;25.43;;
65172;SDS011;51758;52.218;5.172;2023-03-19T08:23:11;44.03;;;23.95;;
65172;SDS011;51758;52.218;5.172;2023-03-19T08:25:39;41.45;;;24.15;;
65172;SDS011;51758;52.218;5.172;2023-03-19T08:28:08;40.17;;;22.38;;
65172;SDS011;51758;52.218;5.172;2023-03-19T08:30:36;35.23;;;21.20;;
65172;SDS011;51758;52.218;5.172;2023-03-19T08:35:34;36.50;;;21.97;;
65172;SDS011;51758;52.218;5.172;2023-03-19T08:38:01;36.20;;;21.23;;
65172;SDS011;51758;52.218;5.172;2023-03-19T08:40:29;37.83;;;23.10;;
65172;SDS011;51758;52.218;5.172;2023-03-19T08:42:57;35.42;;;21.20;;
65172;SDS011;51758;52.218;5.172;2023-03-19T08:45:27;41.67;;;22.42;;
65172;SDS011;51758;52.218;5.172;2023-03-19T08:47:55;38.90;;;22.60;;
65172;SDS011;51758;52.218;5.172;2023-03-19T08:50:24;37.75;;;22.70;;
65172;SDS011;51758;52.218;5.172;2023-03-19T08:52:52;39.13;;;21.92;;
65172;SDS011;51758;52.218;5.172;2023-03-19T08:55:21;42.10;;;24.65;;
65172;SDS011;51758;52.218;5.172;2023-03-19T08:57:48;38.80;;;22.20;;
65172;SDS011;51758;52.218;5.172;2023-03-19T09:00:16;34.10;;;20.80;;
65172;SDS011;51758;52.218;5.172;2023-03-19T09:02:46;38.38;;;21.90;;
65172;SDS011;51758;52.218;5.172;2023-03-19T09:05:14;37.37;;;21.67;;
65172;SDS011;51758;52.218;5.172;2023-03-19T09:07:42;37.37;;;22.50;;
65172;SDS011;51758;52.218;5.172;2023-03-19T09:10:09;37.13;;;22.57;;
65172;SDS011;51758;52.218;5.172;2023-03-19T09:12:37;36.37;;;20.97;;
65172;SDS011;51758;52.218;5.172;2023-03-19T09:15:05;40.83;;;21.77;;
65172;SDS011;51758;52.218;5.172;2023-03-19T09:17:33;37.45;;;21.83;;
65172;SDS011;51758;52.218;5.172;2023-03-19T09:20:02;36.27;;;20.97;;
65172;SDS011;51758;52.218;5.172;2023-03-19T09:22:32;43.83;;;23.07;;
65172;SDS011;51758;52.218;5.172;2023-03-19T09:25:00;47.65;;;24.55;;
65172;SDS011;51758;52.218;5.172;2023-03-19T09:27:28;46.67;;;25.10;;
65172;SDS011;51758;52.218;5.172;2023-03-19T09:29:55;48.83;;;26.13;;
65172;SDS011;51758;52.218;5.172;2023-03-19T09:32:23;48.17;;;25.93;;
65172;SDS011;51758;52.218;5.172;2023-03-19T09:34:51;43.33;;;24.58;;
65172;SDS011;51758;52.218;5.172;2023-03-19T09:37:20;46.07;;;24.13;;
65172;SDS011;51758;52.218;5.172;2023-03-19T09:39:48;45.13;;;23.67;;
65172;SDS011;51758;52.218;5.172;2023-03-19T09:42:18;43.77;;;22.23;;
65172;SDS011;51758;52.218;5.172;2023-03-19T09:44:58;42.80;;;22.97;;
65172;SDS011;51758;52.218;5.172;2023-03-19T09:47:27;35.27;;;19.57;;
65172;SDS011;51758;52.218;5.172;2023-03-19T09:49:58;30.10;;;17.67;;
65172;SDS011;51758;52.218;5.172;2023-03-19T09:52:32;34.77;;;18.27;;
65172;SDS011;51758;52.218;5.172;2023-03-19T09:55:05;35.63;;;19.33;;
65172;SDS011;51758;52.218;5.172;2023-03-19T09:57:40;32.57;;;17.63;;
65172;SDS011;51758;52.218;5.172;2023-03-19T10:00:17;31.38;;;17.50;;
65172;SDS011;51758;52.218;5.172;2023-03-19T10:02:49;31.53;;;17.40;;
65172;SDS011;51758;52.218;5.172;2023-03-19T10:05:22;35.17;;;16.90;;
65172;SDS011;51758;52.218;5.172;2023-03-19T10:08:04;32.85;;;17.05;;
65172;SDS011;51758;52.218;5.172;2023-03-19T10:10:44;33.63;;;17.20;;
65172;SDS011;51758;52.218;5.172;2023-03-19T10:13:29;35.47;;;18.40;;
65172;SDS011;51758;52.218;5.172;2023-03-19T10:16:12;39.33;;;18.37;;
65172;SDS011;51758;52.218;5.172;2023-03-19T10:18:46;35.63;;;17.37;;
65172;SDS011;51758;52.218;5.172;2023-03-19T10:21:17;33.53;;;16.90;;
65172;SDS011;51758;52.218;5.172;2023-03-19T10:23:51;36.13;;;18.60;;
65172;SDS011;51758;52.218;5.172;2023-03-19T10:26:25;37.07;;;17.43;;
65172;SDS011;51758;52.218;5.172;2023-03-19T10:29:00;35.47;;;16.83;;
65172;SDS011;51758;52.218;5.172;2023-03-19T10:31:36;31.77;;;16.90;;
65172;SDS011;51758;52.218;5.172;2023-03-19T10:34:13;36.40;;;17.40;;
65172;SDS011;51758;52.218;5.172;2023-03-19T10:39:25;30.80;;;16.03;;
65172;SDS011;51758;52.218;5.172;2023-03-19T10:41:56;33.37;;;16.93;;
65172;SDS011;51758;52.218;5.172;2023-03-19T10:44:33;36.27;;;17.63;;
65172;SDS011;51758;52.218;5.172;2023-03-19T10:47:10;36.83;;;17.60;;
65172;SDS011;51758;52.218;5.172;2023-03-19T10:49:39;29.93;;;15.03;;
65172;SDS011;51758;52.218;5.172;2023-03-19T10:52:15;32.42;;;16.25;;
65172;SDS011;51758;52.218;5.172;2023-03-19T10:54:47;34.40;;;17.23;;
65172;SDS011;51758;52.218;5.172;2023-03-19T10:57:23;33.40;;;15.77;;
65172;SDS011;51758;52.218;5.172;2023-03-19T10:59:53;30.63;;;16.33;;
65172;SDS011;51758;52.218;5.172;2023-03-19T11:02:22;31.30;;;16.48;;
65172;SDS011;51758;52.218;5.172;2023-03-19T11:05:04;33.23;;;16.67;;
65172;SDS011;51758;52.218;5.172;2023-03-19T11:07:35;33.63;;;16.70;;
65172;SDS011;51758;52.218;5.172;2023-03-19T11:10:05;33.60;;;18.38;;
65172;SDS011;51758;52.218;5.172;2023-03-19T11:12:40;33.87;;;17.10;;
65172;SDS011;51758;52.218;5.172;2023-03-19T11:15:15;32.90;;;16.23;;
65172;SDS011;51758;52.218;5.172;2023-03-19T11:17:47;33.63;;;16.60;;
65172;SDS011;51758;52.218;5.172;2023-03-19T11:20:20;37.30;;;17.20;;
65172;SDS011;51758;52.218;5.172;2023-03-19T11:22:50;39.30;;;19.07;;
65172;SDS011;51758;52.218;5.172;2023-03-19T11:25:24;36.07;;;17.80;;
65172;SDS011;51758;52.218;5.172;2023-03-19T11:27:57;28.63;;;15.27;;
65172;SDS011;51758;52.218;5.172;2023-03-19T11:30:27;37.57;;;18.50;;
65172;SDS011;51758;52.218;5.172;2023-03-19T11:34:57;28.77;;;15.63;;
65172;SDS011;51758;52.218;5.172;2023-03-19T11:37:29;31.90;;;17.17;;
65172;SDS011;51758;52.218;5.172;2023-03-19T11:40:08;34.00;;;17.57;;
65172;SDS011;51758;52.218;5.172;2023-03-19T11:42:45;36.60;;;18.97;;
65172;SDS011;51758;52.218;5.172;2023-03-19T11:45:26;32.73;;;18.40;;
65172;SDS011;51758;52.218;5.172;2023-03-19T11:48:03;35.00;;;18.70;;
65172;SDS011;51758;52.218;5.172;2023-03-19T11:50:46;34.63;;;19.80;;
65172;SDS011;51758;52.218;5.172;2023-03-19T11:53:19;34.40;;;17.90;;
65172;SDS011;51758;52.218;5.172;2023-03-19T11:55:53;34.97;;;18.67;;
65172;SDS011;51758;52.218;5.172;2023-03-19T11:58:32;32.80;;;17.77;;
65172;SDS011;51758;52.218;5.172;2023-03-19T12:01:18;37.27;;;19.03;;
65172;SDS011;51758;52.218;5.172;2023-03-19T12:04:15;37.17;;;19.50;;
65172;SDS011;51758;52.218;5.172;2023-03-19T12:06:57;35.73;;;18.97;;
65172;SDS011;51758;52.218;5.172;2023-03-19T12:09:34;35.37;;;17.83;;
65172;SDS011;51758;52.218;5.172;2023-03-19T12:12:10;36.57;;;19.40;;
65172;SDS011;51758;52.218;5.172;2023-03-19T12:14:55;36.33;;;18.63;;
65172;SDS011;51758;52.218;5.172;2023-03-19T12:17:37;33.67;;;18.03;;
65172;SDS011;51758;52.218;5.172;2023-03-19T12:20:15;36.10;;;17.90;;
65172;SDS011;51758;52.218;5.172;2023-03-19T12:22:56;30.90;;;15.90;;
65172;SDS011;51758;52.218;5.172;2023-03-19T12:25:37;28.57;;;15.23;;
65172;SDS011;51758;52.218;5.172;2023-03-19T12:28:17;31.60;;;15.93;;
65172;SDS011;51758;52.218;5.172;2023-03-19T12:30:54;30.30;;;15.47;;
65172;SDS011;51758;52.218;5.172;2023-03-19T12:33:38;30.70;;;15.67;;
65172;SDS011;51758;52.218;5.172;2023-03-19T12:36:14;35.53;;;18.10;;
65172;SDS011;51758;52.218;5.172;2023-03-19T12:38:48;36.63;;;18.93;;
65172;SDS011;51758;52.218;5.172;2023-03-19T12:41:21;34.67;;;20.37;;
65172;SDS011;51758;52.218;5.172;2023-03-19T12:43:52;34.77;;;20.50;;
65172;SDS011;51758;52.218;5.172;2023-03-19T12:46:26;38.73;;;20.37;;
65172;SDS011;51758;52.218;5.172;2023-03-19T12:49:00;39.03;;;19.73;;
65172;SDS011;51758;52.218;5.172;2023-03-19T12:51:33;37.13;;;20.33;;
65172;SDS011;51758;52.218;5.172;2023-03-19T12:54:05;36.27;;;20.37;;
65172;SDS011;51758;52.218;5.172;2023-03-19T12:56:38;39.97;;;20.30;;
65172;SDS011;51758;52.218;5.172;2023-03-19T12:59:13;39.17;;;20.80;;
65172;SDS011;51758;52.218;5.172;2023-03-19T13:01:47;38.50;;;20.07;;
65172;SDS011;51758;52.218;5.172;2023-03-19T13:04:19;39.00;;;20.03;;
65172;SDS011;51758;52.218;5.172;2023-03-19T13:06:51;42.37;;;21.83;;
65172;SDS011;51758;52.218;5.172;2023-03-19T13:09:27;38.40;;;20.10;;
65172;SDS011;51758;52.218;5.172;2023-03-19T13:11:59;39.90;;;20.73;;
65172;SDS011;51758;52.218;5.172;2023-03-19T13:14:34;42.97;;;21.53;;
65172;SDS011;51758;52.218;5.172;2023-03-19T13:17:11;40.73;;;21.47;;
65172;SDS011;51758;52.218;5.172;2023-03-19T13:19:47;42.17;;;21.97;;
65172;SDS011;51758;52.218;5.172;2023-03-19T13:22:19;37.87;;;20.57;;
65172;SDS011;51758;52.218;5.172;2023-03-19T13:24:50;39.80;;;20.57;;
65172;SDS011;51758;52.218;5.172;2023-03-19T13:27:21;40.13;;;22.00;;
65172;SDS011;51758;52.218;5.172;2023-03-19T13:30:01;36.80;;;20.10;;
65172;SDS011;51758;52.218;5.172;2023-03-19T13:38:11;32.33;;;20.27;;
65172;SDS011;51758;52.218;5.172;2023-03-19T13:40:46;30.55;;;18.65;;
65172;SDS011;51758;52.218;5.172;2023-03-19T13:46:35;33.00;;;19.47;;
65172;SDS011;51758;52.218;5.172;2023-03-19T13:49:08;31.40;;;18.93;;
65172;SDS011;51758;52.218;5.172;2023-03-19T13:51:55;37.53;;;20.20;;
65172;SDS011;51758;52.218;5.172;2023-03-19T13:54:35;32.60;;;19.70;;
65172;SDS011;51758;52.218;5.172;2023-03-19T14:00:01;32.67;;;19.43;;
65172;SDS011;51758;52.218;5.172;2023-03-19T14:03:13;32.83;;;19.67;;
65172;SDS011;51758;52.218;5.172;2023-03-19T14:05:46;32.67;;;19.87;;
65172;SDS011;51758;52.218;5.172;2023-03-19T14:08:17;33.23;;;19.77;;
65172;SDS011;51758;52.218;5.172;2023-03-19T14:10:47;33.00;;;19.37;;
65172;SDS011;51758;52.218;5.172;2023-03-19T14:13:20;30.40;;;18.53;;
65172;SDS011;51758;52.218;5.172;2023-03-19T14:15:55;26.93;;;18.33;;
65172;SDS011;51758;52.218;5.172;2023-03-19T14:18:31;25.70;;;17.40;;
65172;SDS011;51758;52.218;5.172;2023-03-19T14:23:37;26.43;;;16.77;;
65172;SDS011;51758;52.218;5.172;2023-03-19T14:26:15;31.93;;;18.37;;
65172;SDS011;51758;52.218;5.172;2023-03-19T14:28:51;30.33;;;17.33;;
65172;SDS011;51758;52.218;5.172;2023-03-19T14:31:22;29.07;;;17.43;;
65172;SDS011;51758;52.218;5.172;2023-03-19T14:33:57;29.43;;;18.00;;
65172;SDS011;51758;52.218;5.172;2023-03-19T14:36:28;27.03;;;17.30;;
65172;SDS011;51758;52.218;5.172;2023-03-19T14:38:58;29.27;;;18.25;;
65172;SDS011;51758;52.218;5.172;2023-03-19T14:41:30;26.90;;;17.43;;
65172;SDS011;51758;52.218;5.172;2023-03-19T14:44:10;29.73;;;16.63;;
65172;SDS011;51758;52.218;5.172;2023-03-19T14:47:02;26.70;;;16.50;;
65172;SDS011;51758;52.218;5.172;2023-03-19T14:49:51;26.40;;;14.63;;
65172;SDS011;51758;52.218;5.172;2023-03-19T14:52:29;26.40;;;15.13;;
65172;SDS011;51758;52.218;5.172;2023-03-19T14:55:02;24.90;;;15.13;;
65172;SDS011;51758;52.218;5.172;2023-03-19T14:57:34;23.30;;;14.33;;
65172;SDS011;51758;52.218;5.172;2023-03-19T15:00:05;26.50;;;15.57;;
65172;SDS011;51758;52.218;5.172;2023-03-19T15:02:39;22.67;;;13.67;;
65172;SDS011;51758;52.218;5.172;2023-03-19T15:05:12;20.50;;;13.30;;
65172;SDS011;51758;52.218;5.172;2023-03-19T15:07:45;19.43;;;12.97;;
65172;SDS011;51758;52.218;5.172;2023-03-19T15:10:16;25.00;;;14.93;;
65172;SDS011;51758;52.218;5.172;2023-03-19T15:15:52;27.77;;;17.20;;